sensor_id;sensor_type;location;lat;lon;timestamp;P1;durP1;ratioP1;P2;durP2;ratioP2
40164;SDS011;25882;51.120;17.248;2022-07-22T00:02:15;11.55;;;6.88;;
40164;SDS011;25882;51.120;17.248;2022-07-22T00:04:41;14.35;;;7.03;;
40164;SDS011;25882;51.120;17.248;2022-07-22T00:07:08;9.10;;;7.13;;
40164;SDS011;25882;51.120;17.248;2022-07-22T00:09:36;9.07;;;7.03;;
40164;SDS011;25882;51.120;17.248;2022-07-22T00:12:02;8.10;;;6.65;;
40164;SDS011;25882;51.120;17.248;2022-07-22T00:14:29;13.27;;;7.10;;
40164;SDS011;25882;51.120;17.248;2022-07-22T00:16:55;10.38;;;7.18;;
40164;SDS011;25882;51.120;17.248;2022-07-22T00:19:21;11.38;;;7.25;;
40164;SDS011;25882;51.120;17.248;2022-07-22T00:21:50;10.40;;;7.05;;
40164;SDS011;25882;51.120;17.248;2022-07-22T00:24:16;8.90;;;6.95;;
40164;SDS011;25882;51.120;17.248;2022-07-22T00:26:44;11.27;;;8.10;;
40164;SDS011;25882;51.120;17.248;2022-07-22T00:29:10;10.20;;;6.90;;
40164;SDS011;25882;51.120;17.248;2022-07-22T00:31:37;10.25;;;8.15;;
40164;SDS011;25882;51.120;17.248;2022-07-22T00:34:03;8.80;;;7.22;;
40164;SDS011;25882;51.120;17.248;2022-07-22T00:36:29;9.15;;;6.13;;
40164;SDS011;25882;51.120;17.248;2022-07-22T00:38:56;10.80;;;7.43;;
40164;SDS011;25882;51.120;17.248;2022-07-22T00:41:22;10.63;;;7.25;;
40164;SDS011;25882;51.120;17.248;2022-07-22T00:43:54;10.77;;;6.75;;
40164;SDS011;25882;51.120;17.248;2022-07-22T00:46:21;11.35;;;7.72;;
40164;SDS011;25882;51.120;17.248;2022-07-22T00:48:48;15.18;;;8.38;;
40164;SDS011;25882;51.120;17.248;2022-07-22T00:51:14;10.77;;;7.05;;
40164;SDS011;25882;51.120;17.248;2022-07-22T00:53:41;9.02;;;7.65;;
40164;SDS011;25882;51.120;17.248;2022-07-22T00:56:07;9.55;;;6.78;;
40164;SDS011;25882;51.120;17.248;2022-07-22T00:58:33;8.32;;;7.25;;
40164;SDS011;25882;51.120;17.248;2022-07-22T01:01:01;8.27;;;7.05;;
40164;SDS011;25882;51.120;17.248;2022-07-22T01:03:28;11.50;;;7.38;;
40164;SDS011;25882;51.120;17.248;2022-07-22T01:05:55;21.50;;;8.25;;
40164;SDS011;25882;51.120;17.248;2022-07-22T01:08:24;11.00;;;7.07;;
40164;SDS011;25882;51.120;17.248;2022-07-22T01:10:50;13.32;;;7.63;;
40164;SDS011;25882;51.120;17.248;2022-07-22T01:13:16;22.30;;;9.13;;
40164;SDS011;25882;51.120;17.248;2022-07-22T01:15:43;16.15;;;7.97;;
40164;SDS011;25882;51.120;17.248;2022-07-22T01:18:10;16.08;;;8.00;;
40164;SDS011;25882;51.120;17.248;2022-07-22T01:20:38;14.43;;;8.88;;
40164;SDS011;25882;51.120;17.248;2022-07-22T01:23:04;14.73;;;8.82;;
40164;SDS011;25882;51.120;17.248;2022-07-22T01:25:31;12.30;;;7.88;;
40164;SDS011;25882;51.120;17.248;2022-07-22T01:27:57;12.95;;;7.75;;
40164;SDS011;25882;51.120;17.248;2022-07-22T01:30:23;11.27;;;7.55;;
40164;SDS011;25882;51.120;17.248;2022-07-22T01:32:49;16.92;;;8.50;;
40164;SDS011;25882;51.120;17.248;2022-07-22T01:35:16;12.82;;;8.07;;
40164;SDS011;25882;51.120;17.248;2022-07-22T01:37:43;11.50;;;7.57;;
40164;SDS011;25882;51.120;17.248;2022-07-22T01:40:10;15.98;;;7.80;;
40164;SDS011;25882;51.120;17.248;2022-07-22T01:42:37;12.10;;;8.68;;
40164;SDS011;25882;51.120;17.248;2022-07-22T01:45:04;21.83;;;8.07;;
40164;SDS011;25882;51.120;17.248;2022-07-22T01:47:30;14.18;;;9.05;;
40164;SDS011;25882;51.120;17.248;2022-07-22T01:49:56;13.82;;;8.43;;
40164;SDS011;25882;51.120;17.248;2022-07-22T01:52:23;13.75;;;7.63;;
40164;SDS011;25882;51.120;17.248;2022-07-22T01:54:51;9.20;;;7.47;;
40164;SDS011;25882;51.120;17.248;2022-07-22T01:57:17;11.35;;;9.00;;
40164;SDS011;25882;51.120;17.248;2022-07-22T01:59:43;11.07;;;7.78;;
40164;SDS011;25882;51.120;17.248;2022-07-22T02:02:10;17.23;;;7.85;;
40164;SDS011;25882;51.120;17.248;2022-07-22T02:04:36;12.60;;;7.80;;
40164;SDS011;25882;51.120;17.248;2022-07-22T02:07:02;12.40;;;7.63;;
40164;SDS011;25882;51.120;17.248;2022-07-22T02:09:29;9.70;;;7.78;;
40164;SDS011;25882;51.120;17.248;2022-07-22T02:11:56;10.30;;;7.45;;
40164;SDS011;25882;51.120;17.248;2022-07-22T02:14:23;10.82;;;7.25;;
40164;SDS011;25882;51.120;17.248;2022-07-22T02:16:49;12.55;;;7.95;;
40164;SDS011;25882;51.120;17.248;2022-07-22T02:19:15;10.02;;;7.70;;
40164;SDS011;25882;51.120;17.248;2022-07-22T02:21:41;9.40;;;7.65;;
40164;SDS011;25882;51.120;17.248;2022-07-22T02:24:07;12.23;;;8.02;;
40164;SDS011;25882;51.120;17.248;2022-07-22T02:26:34;9.40;;;7.80;;
40164;SDS011;25882;51.120;17.248;2022-07-22T02:29:02;10.15;;;8.20;;
40164;SDS011;25882;51.120;17.248;2022-07-22T02:31:28;9.57;;;7.72;;
40164;SDS011;25882;51.120;17.248;2022-07-22T02:33:55;8.32;;;7.35;;
40164;SDS011;25882;51.120;17.248;2022-07-22T02:36:21;11.20;;;7.07;;
40164;SDS011;25882;51.120;17.248;2022-07-22T02:38:48;10.68;;;7.78;;
40164;SDS011;25882;51.120;17.248;2022-07-22T02:41:14;8.40;;;6.93;;
40164;SDS011;25882;51.120;17.248;2022-07-22T02:43:40;12.75;;;7.75;;
40164;SDS011;25882;51.120;17.248;2022-07-22T02:46:08;8.52;;;7.50;;
40164;SDS011;25882;51.120;17.248;2022-07-22T02:48:34;13.55;;;7.82;;
40164;SDS011;25882;51.120;17.248;2022-07-22T02:51:00;11.57;;;8.35;;
40164;SDS011;25882;51.120;17.248;2022-07-22T02:53:26;10.38;;;7.65;;
40164;SDS011;25882;51.120;17.248;2022-07-22T02:55:52;9.27;;;7.20;;
40164;SDS011;25882;51.120;17.248;2022-07-22T02:58:19;9.27;;;7.95;;
40164;SDS011;25882;51.120;17.248;2022-07-22T03:00:47;11.80;;;8.07;;
40164;SDS011;25882;51.120;17.248;2022-07-22T03:03:15;12.23;;;8.27;;
40164;SDS011;25882;51.120;17.248;2022-07-22T03:05:41;13.88;;;8.57;;
40164;SDS011;25882;51.120;17.248;2022-07-22T03:08:07;13.23;;;9.02;;
40164;SDS011;25882;51.120;17.248;2022-07-22T03:10:34;11.07;;;8.63;;
40164;SDS011;25882;51.120;17.248;2022-07-22T03:13:00;20.52;;;10.18;;
40164;SDS011;25882;51.120;17.248;2022-07-22T03:15:26;15.15;;;9.23;;
40164;SDS011;25882;51.120;17.248;2022-07-22T03:17:53;14.35;;;9.05;;
40164;SDS011;25882;51.120;17.248;2022-07-22T03:20:21;14.45;;;9.98;;
40164;SDS011;25882;51.120;17.248;2022-07-22T03:22:47;13.73;;;9.00;;
40164;SDS011;25882;51.120;17.248;2022-07-22T03:25:13;17.17;;;10.00;;
40164;SDS011;25882;51.120;17.248;2022-07-22T03:27:40;15.75;;;9.68;;
40164;SDS011;25882;51.120;17.248;2022-07-22T03:30:06;19.05;;;9.35;;
40164;SDS011;25882;51.120;17.248;2022-07-22T03:32:33;28.70;;;12.60;;
40164;SDS011;25882;51.120;17.248;2022-07-22T03:34:59;20.15;;;11.30;;
40164;SDS011;25882;51.120;17.248;2022-07-22T03:37:27;19.80;;;11.95;;
40164;SDS011;25882;51.120;17.248;2022-07-22T03:39:53;17.75;;;11.88;;
40164;SDS011;25882;51.120;17.248;2022-07-22T03:42:20;16.23;;;11.90;;
40164;SDS011;25882;51.120;17.248;2022-07-22T03:44:46;18.08;;;11.20;;
40164;SDS011;25882;51.120;17.248;2022-07-22T03:47:12;13.82;;;11.02;;
40164;SDS011;25882;51.120;17.248;2022-07-22T03:49:43;13.38;;;11.30;;
40164;SDS011;25882;51.120;17.248;2022-07-22T03:52:09;14.77;;;10.75;;
40164;SDS011;25882;51.120;17.248;2022-07-22T03:54:37;16.40;;;11.65;;
40164;SDS011;25882;51.120;17.248;2022-07-22T03:57:03;16.60;;;11.77;;
40164;SDS011;25882;51.120;17.248;2022-07-22T03:59:30;17.10;;;11.60;;
40164;SDS011;25882;51.120;17.248;2022-07-22T04:01:56;17.90;;;11.30;;
40164;SDS011;25882;51.120;17.248;2022-07-22T04:04:22;18.02;;;12.30;;
40164;SDS011;25882;51.120;17.248;2022-07-22T04:06:48;18.77;;;12.43;;
40164;SDS011;25882;51.120;17.248;2022-07-22T04:09:16;18.15;;;12.05;;
40164;SDS011;25882;51.120;17.248;2022-07-22T04:11:44;17.05;;;11.52;;
40164;SDS011;25882;51.120;17.248;2022-07-22T04:14:11;15.35;;;12.02;;
40164;SDS011;25882;51.120;17.248;2022-07-22T04:16:38;23.48;;;12.60;;
40164;SDS011;25882;51.120;17.248;2022-07-22T04:19:04;17.48;;;12.07;;
40164;SDS011;25882;51.120;17.248;2022-07-22T04:21:30;18.02;;;12.02;;
40164;SDS011;25882;51.120;17.248;2022-07-22T04:23:56;17.40;;;12.43;;
40164;SDS011;25882;51.120;17.248;2022-07-22T04:26:23;18.15;;;13.13;;
40164;SDS011;25882;51.120;17.248;2022-07-22T04:28:50;16.92;;;11.93;;
40164;SDS011;25882;51.120;17.248;2022-07-22T04:31:16;17.73;;;11.75;;
40164;SDS011;25882;51.120;17.248;2022-07-22T04:33:43;16.92;;;11.98;;
40164;SDS011;25882;51.120;17.248;2022-07-22T04:36:09;16.55;;;12.55;;
40164;SDS011;25882;51.120;17.248;2022-07-22T04:38:35;14.90;;;11.77;;
40164;SDS011;25882;51.120;17.248;2022-07-22T04:41:02;17.88;;;13.52;;
40164;SDS011;25882;51.120;17.248;2022-07-22T04:43:28;17.13;;;11.93;;
40164;SDS011;25882;51.120;17.248;2022-07-22T04:45:56;17.20;;;10.82;;
40164;SDS011;25882;51.120;17.248;2022-07-22T04:48:23;14.95;;;11.38;;
40164;SDS011;25882;51.120;17.248;2022-07-22T04:50:49;14.57;;;11.30;;
40164;SDS011;25882;51.120;17.248;2022-07-22T04:53:15;15.02;;;12.45;;
40164;SDS011;25882;51.120;17.248;2022-07-22T04:55:42;15.18;;;11.73;;
40164;SDS011;25882;51.120;17.248;2022-07-22T04:58:08;14.20;;;11.70;;
40164;SDS011;25882;51.120;17.248;2022-07-22T05:00:34;13.77;;;11.80;;
40164;SDS011;25882;51.120;17.248;2022-07-22T05:03:02;15.40;;;11.88;;
40164;SDS011;25882;51.120;17.248;2022-07-22T05:05:28;17.33;;;12.57;;
40164;SDS011;25882;51.120;17.248;2022-07-22T05:07:55;15.63;;;13.15;;
40164;SDS011;25882;51.120;17.248;2022-07-22T05:10:21;15.43;;;12.60;;
40164;SDS011;25882;51.120;17.248;2022-07-22T05:12:47;16.58;;;13.25;;
40164;SDS011;25882;51.120;17.248;2022-07-22T05:15:14;15.02;;;12.48;;
40164;SDS011;25882;51.120;17.248;2022-07-22T05:17:40;16.10;;;13.13;;
40164;SDS011;25882;51.120;17.248;2022-07-22T05:20:08;16.63;;;13.05;;
40164;SDS011;25882;51.120;17.248;2022-07-22T05:22:35;18.83;;;13.23;;
40164;SDS011;25882;51.120;17.248;2022-07-22T05:25:02;16.38;;;12.88;;
40164;SDS011;25882;51.120;17.248;2022-07-22T05:27:29;17.58;;;12.60;;
40164;SDS011;25882;51.120;17.248;2022-07-22T05:29:56;16.38;;;11.73;;
40164;SDS011;25882;51.120;17.248;2022-07-22T05:32:22;12.38;;;10.88;;
40164;SDS011;25882;51.120;17.248;2022-07-22T05:34:49;13.32;;;11.30;;
40164;SDS011;25882;51.120;17.248;2022-07-22T05:37:17;12.48;;;11.07;;
40164;SDS011;25882;51.120;17.248;2022-07-22T05:39:43;14.05;;;11.80;;
40164;SDS011;25882;51.120;17.248;2022-07-22T05:42:10;13.88;;;10.10;;
40164;SDS011;25882;51.120;17.248;2022-07-22T05:44:36;12.13;;;10.55;;
40164;SDS011;25882;51.120;17.248;2022-07-22T05:47:03;13.10;;;10.25;;
40164;SDS011;25882;51.120;17.248;2022-07-22T05:49:29;12.15;;;10.25;;
40164;SDS011;25882;51.120;17.248;2022-07-22T05:51:56;14.95;;;10.73;;
40164;SDS011;25882;51.120;17.248;2022-07-22T05:54:27;12.27;;;10.40;;
40164;SDS011;25882;51.120;17.248;2022-07-22T05:56:53;12.50;;;10.40;;
40164;SDS011;25882;51.120;17.248;2022-07-22T05:59:20;11.73;;;9.63;;
40164;SDS011;25882;51.120;17.248;2022-07-22T06:01:46;12.32;;;8.73;;
40164;SDS011;25882;51.120;17.248;2022-07-22T06:04:13;12.75;;;9.85;;
40164;SDS011;25882;51.120;17.248;2022-07-22T06:06:39;13.57;;;9.93;;
40164;SDS011;25882;51.120;17.248;2022-07-22T06:09:06;10.20;;;9.18;;
40164;SDS011;25882;51.120;17.248;2022-07-22T06:11:33;11.90;;;9.63;;
40164;SDS011;25882;51.120;17.248;2022-07-22T06:14:00;11.57;;;9.48;;
40164;SDS011;25882;51.120;17.248;2022-07-22T06:16:26;12.82;;;9.45;;
40164;SDS011;25882;51.120;17.248;2022-07-22T06:18:53;12.50;;;9.20;;
40164;SDS011;25882;51.120;17.248;2022-07-22T06:21:19;10.05;;;8.90;;
40164;SDS011;25882;51.120;17.248;2022-07-22T06:23:45;10.82;;;9.40;;
40164;SDS011;25882;51.120;17.248;2022-07-22T06:26:12;10.57;;;9.00;;
40164;SDS011;25882;51.120;17.248;2022-07-22T06:28:39;9.10;;;8.13;;
40164;SDS011;25882;51.120;17.248;2022-07-22T06:31:06;10.23;;;8.68;;
40164;SDS011;25882;51.120;17.248;2022-07-22T06:33:32;10.85;;;8.98;;
40164;SDS011;25882;51.120;17.248;2022-07-22T06:35:58;12.15;;;8.27;;
40164;SDS011;25882;51.120;17.248;2022-07-22T06:38:26;11.10;;;8.20;;
40164;SDS011;25882;51.120;17.248;2022-07-22T06:40:52;11.25;;;8.45;;
40164;SDS011;25882;51.120;17.248;2022-07-22T06:43:19;9.27;;;8.27;;
40164;SDS011;25882;51.120;17.248;2022-07-22T06:45:47;11.45;;;8.52;;
40164;SDS011;25882;51.120;17.248;2022-07-22T06:48:13;12.40;;;8.82;;
40164;SDS011;25882;51.120;17.248;2022-07-22T06:50:39;9.80;;;8.02;;
40164;SDS011;25882;51.120;17.248;2022-07-22T06:53:05;8.95;;;8.07;;
40164;SDS011;25882;51.120;17.248;2022-07-22T06:55:32;9.45;;;7.53;;
40164;SDS011;25882;51.120;17.248;2022-07-22T06:58:00;9.48;;;8.25;;
40164;SDS011;25882;51.120;17.248;2022-07-22T07:00:27;10.18;;;7.97;;
40164;SDS011;25882;51.120;17.248;2022-07-22T07:02:55;8.95;;;7.95;;
40164;SDS011;25882;51.120;17.248;2022-07-22T07:05:23;9.63;;;7.40;;
40164;SDS011;25882;51.120;17.248;2022-07-22T07:07:50;8.60;;;7.68;;
40164;SDS011;25882;51.120;17.248;2022-07-22T07:10:17;9.57;;;7.60;;
40164;SDS011;25882;51.120;17.248;2022-07-22T07:12:43;10.13;;;7.05;;
40164;SDS011;25882;51.120;17.248;2022-07-22T07:15:10;9.25;;;7.70;;
40164;SDS011;25882;51.120;17.248;2022-07-22T07:17:37;9.18;;;7.10;;
40164;SDS011;25882;51.120;17.248;2022-07-22T07:20:05;8.38;;;7.57;;
40164;SDS011;25882;51.120;17.248;2022-07-22T07:22:33;9.30;;;7.20;;
40164;SDS011;25882;51.120;17.248;2022-07-22T07:25:01;8.40;;;7.63;;
40164;SDS011;25882;51.120;17.248;2022-07-22T07:27:28;8.45;;;7.38;;
40164;SDS011;25882;51.120;17.248;2022-07-22T07:29:55;8.38;;;7.45;;
40164;SDS011;25882;51.120;17.248;2022-07-22T07:32:21;7.72;;;6.65;;
40164;SDS011;25882;51.120;17.248;2022-07-22T07:34:48;8.75;;;7.70;;
40164;SDS011;25882;51.120;17.248;2022-07-22T07:37:16;8.38;;;7.53;;
40164;SDS011;25882;51.120;17.248;2022-07-22T07:39:42;9.50;;;7.60;;
40164;SDS011;25882;51.120;17.248;2022-07-22T07:42:08;9.38;;;8.25;;
40164;SDS011;25882;51.120;17.248;2022-07-22T07:44:35;9.45;;;8.20;;
40164;SDS011;25882;51.120;17.248;2022-07-22T07:47:01;9.20;;;7.72;;
40164;SDS011;25882;51.120;17.248;2022-07-22T07:49:28;8.15;;;7.38;;
40164;SDS011;25882;51.120;17.248;2022-07-22T07:51:54;10.65;;;7.68;;
40164;SDS011;25882;51.120;17.248;2022-07-22T07:54:22;9.70;;;8.68;;
40164;SDS011;25882;51.120;17.248;2022-07-22T07:56:49;10.50;;;7.88;;
40164;SDS011;25882;51.120;17.248;2022-07-22T07:59:15;10.63;;;7.70;;
40164;SDS011;25882;51.120;17.248;2022-07-22T08:01:42;10.98;;;8.50;;
40164;SDS011;25882;51.120;17.248;2022-07-22T08:04:08;10.82;;;8.43;;
40164;SDS011;25882;51.120;17.248;2022-07-22T08:06:35;10.15;;;9.18;;
40164;SDS011;25882;51.120;17.248;2022-07-22T08:09:02;10.20;;;8.32;;
40164;SDS011;25882;51.120;17.248;2022-07-22T08:11:30;9.63;;;8.52;;
40164;SDS011;25882;51.120;17.248;2022-07-22T08:13:56;9.02;;;8.13;;
40164;SDS011;25882;51.120;17.248;2022-07-22T08:16:23;10.00;;;8.95;;
40164;SDS011;25882;51.120;17.248;2022-07-22T08:18:49;10.77;;;9.77;;
40164;SDS011;25882;51.120;17.248;2022-07-22T08:21:16;10.75;;;9.55;;
40164;SDS011;25882;51.120;17.248;2022-07-22T08:23:42;11.30;;;9.57;;
40164;SDS011;25882;51.120;17.248;2022-07-22T08:29:50;9.63;;;8.55;;
40164;SDS011;25882;51.120;17.248;2022-07-22T08:32:18;11.32;;;9.75;;
40164;SDS011;25882;51.120;17.248;2022-07-22T08:34:44;9.82;;;8.82;;
40164;SDS011;25882;51.120;17.248;2022-07-22T08:37:10;11.00;;;9.80;;
40164;SDS011;25882;51.120;17.248;2022-07-22T08:39:37;10.13;;;9.13;;
40164;SDS011;25882;51.120;17.248;2022-07-22T08:42:04;10.52;;;8.90;;
40164;SDS011;25882;51.120;17.248;2022-07-22T08:44:30;10.23;;;9.18;;
40164;SDS011;25882;51.120;17.248;2022-07-22T08:47:00;11.02;;;9.05;;
40164;SDS011;25882;51.120;17.248;2022-07-22T08:49:26;12.20;;;10.07;;
40164;SDS011;25882;51.120;17.248;2022-07-22T08:51:52;9.95;;;8.60;;
40164;SDS011;25882;51.120;17.248;2022-07-22T08:54:19;11.45;;;9.35;;
40164;SDS011;25882;51.120;17.248;2022-07-22T08:56:46;10.70;;;8.77;;
40164;SDS011;25882;51.120;17.248;2022-07-22T09:02:49;10.10;;;8.80;;
40164;SDS011;25882;51.120;17.248;2022-07-22T09:05:16;10.57;;;9.57;;
40164;SDS011;25882;51.120;17.248;2022-07-22T09:07:43;9.73;;;7.88;;
40164;SDS011;25882;51.120;17.248;2022-07-22T09:10:11;11.45;;;9.27;;
40164;SDS011;25882;51.120;17.248;2022-07-22T09:15:25;11.10;;;10.00;;
40164;SDS011;25882;51.120;17.248;2022-07-22T09:17:53;16.10;;;9.60;;
40164;SDS011;25882;51.120;17.248;2022-07-22T09:20:20;10.18;;;9.18;;
40164;SDS011;25882;51.120;17.248;2022-07-22T09:22:48;11.25;;;9.82;;
40164;SDS011;25882;51.120;17.248;2022-07-22T09:25:27;10.38;;;9.02;;
40164;SDS011;25882;51.120;17.248;2022-07-22T09:27:55;10.77;;;8.73;;
40164;SDS011;25882;51.120;17.248;2022-07-22T09:30:34;9.05;;;8.15;;
40164;SDS011;25882;51.120;17.248;2022-07-22T09:33:03;9.45;;;8.55;;
40164;SDS011;25882;51.120;17.248;2022-07-22T09:35:30;12.63;;;9.25;;
40164;SDS011;25882;51.120;17.248;2022-07-22T09:37:57;9.90;;;8.93;;
40164;SDS011;25882;51.120;17.248;2022-07-22T09:40:25;9.55;;;8.52;;
40164;SDS011;25882;51.120;17.248;2022-07-22T09:42:53;9.98;;;9.00;;
40164;SDS011;25882;51.120;17.248;2022-07-22T09:45:20;10.10;;;9.20;;
40164;SDS011;25882;51.120;17.248;2022-07-22T09:47:49;11.43;;;10.27;;
40164;SDS011;25882;51.120;17.248;2022-07-22T09:50:21;14.45;;;10.07;;
40164;SDS011;25882;51.120;17.248;2022-07-22T09:52:48;10.80;;;8.93;;
40164;SDS011;25882;51.120;17.248;2022-07-22T09:55:16;10.15;;;8.70;;
40164;SDS011;25882;51.120;17.248;2022-07-22T09:57:43;11.65;;;9.27;;
40164;SDS011;25882;51.120;17.248;2022-07-22T10:00:10;10.73;;;9.73;;
40164;SDS011;25882;51.120;17.248;2022-07-22T10:02:40;8.70;;;7.90;;
40164;SDS011;25882;51.120;17.248;2022-07-22T10:05:10;8.63;;;7.72;;
40164;SDS011;25882;51.120;17.248;2022-07-22T10:07:39;12.32;;;7.38;;
40164;SDS011;25882;51.120;17.248;2022-07-22T10:10:07;9.75;;;8.85;;
40164;SDS011;25882;51.120;17.248;2022-07-22T10:12:34;8.43;;;7.57;;
40164;SDS011;25882;51.120;17.248;2022-07-22T10:15:02;8.07;;;7.07;;
40164;SDS011;25882;51.120;17.248;2022-07-22T10:17:29;9.02;;;6.57;;
40164;SDS011;25882;51.120;17.248;2022-07-22T10:19:55;8.85;;;7.80;;
40164;SDS011;25882;51.120;17.248;2022-07-22T10:25:15;11.35;;;7.25;;
40164;SDS011;25882;51.120;17.248;2022-07-22T10:27:44;8.07;;;6.85;;
40164;SDS011;25882;51.120;17.248;2022-07-22T10:30:12;8.95;;;6.47;;
40164;SDS011;25882;51.120;17.248;2022-07-22T10:32:39;9.00;;;7.18;;
40164;SDS011;25882;51.120;17.248;2022-07-22T10:35:22;9.43;;;7.35;;
40164;SDS011;25882;51.120;17.248;2022-07-22T10:37:50;9.80;;;6.05;;
40164;SDS011;25882;51.120;17.248;2022-07-22T10:40:18;8.40;;;6.70;;
40164;SDS011;25882;51.120;17.248;2022-07-22T10:43:05;7.10;;;6.18;;
40164;SDS011;25882;51.120;17.248;2022-07-22T10:45:36;11.15;;;6.22;;
40164;SDS011;25882;51.120;17.248;2022-07-22T10:48:04;7.00;;;6.20;;
40164;SDS011;25882;51.120;17.248;2022-07-22T10:50:40;8.18;;;7.10;;
40164;SDS011;25882;51.120;17.248;2022-07-22T10:53:09;7.57;;;6.45;;
40164;SDS011;25882;51.120;17.248;2022-07-22T10:55:36;8.38;;;6.10;;
40164;SDS011;25882;51.120;17.248;2022-07-22T11:01:11;8.05;;;5.40;;
40164;SDS011;25882;51.120;17.248;2022-07-22T11:03:39;7.05;;;6.35;;
40164;SDS011;25882;51.120;17.248;2022-07-22T11:08:57;6.32;;;5.68;;
40164;SDS011;25882;51.120;17.248;2022-07-22T11:11:30;7.75;;;5.95;;
40164;SDS011;25882;51.120;17.248;2022-07-22T11:14:05;5.97;;;5.38;;
40164;SDS011;25882;51.120;17.248;2022-07-22T11:16:40;6.75;;;6.05;;
40164;SDS011;25882;51.120;17.248;2022-07-22T11:19:07;7.07;;;6.30;;
40164;SDS011;25882;51.120;17.248;2022-07-22T11:21:34;6.10;;;5.50;;
40164;SDS011;25882;51.120;17.248;2022-07-22T11:24:03;7.25;;;5.93;;
40164;SDS011;25882;51.120;17.248;2022-07-22T11:26:35;7.55;;;6.05;;
40164;SDS011;25882;51.120;17.248;2022-07-22T11:29:05;8.10;;;6.22;;
40164;SDS011;25882;51.120;17.248;2022-07-22T11:31:31;6.75;;;5.88;;
40164;SDS011;25882;51.120;17.248;2022-07-22T11:34:06;7.72;;;6.97;;
40164;SDS011;25882;51.120;17.248;2022-07-22T11:36:34;7.68;;;5.95;;
40164;SDS011;25882;51.120;17.248;2022-07-22T11:39:02;6.50;;;5.85;;
40164;SDS011;25882;51.120;17.248;2022-07-22T11:41:29;10.15;;;6.53;;
40164;SDS011;25882;51.120;17.248;2022-07-22T11:43:56;8.38;;;6.30;;
40164;SDS011;25882;51.120;17.248;2022-07-22T11:46:23;7.80;;;5.80;;
40164;SDS011;25882;51.120;17.248;2022-07-22T11:48:51;12.07;;;5.93;;
40164;SDS011;25882;51.120;17.248;2022-07-22T11:51:18;6.95;;;6.25;;
40164;SDS011;25882;51.120;17.248;2022-07-22T11:53:44;11.10;;;6.72;;
40164;SDS011;25882;51.120;17.248;2022-07-22T11:56:12;8.27;;;6.93;;
40164;SDS011;25882;51.120;17.248;2022-07-22T11:58:40;9.00;;;6.55;;
40164;SDS011;25882;51.120;17.248;2022-07-22T12:01:08;8.68;;;7.57;;
40164;SDS011;25882;51.120;17.248;2022-07-22T12:03:35;7.50;;;5.80;;
40164;SDS011;25882;51.120;17.248;2022-07-22T12:06:03;7.95;;;6.28;;
40164;SDS011;25882;51.120;17.248;2022-07-22T12:08:33;7.00;;;5.88;;
40164;SDS011;25882;51.120;17.248;2022-07-22T12:11:00;8.18;;;6.07;;
40164;SDS011;25882;51.120;17.248;2022-07-22T12:13:31;10.43;;;6.75;;
40164;SDS011;25882;51.120;17.248;2022-07-22T12:15:57;20.73;;;14.77;;
40164;SDS011;25882;51.120;17.248;2022-07-22T12:18:24;19.83;;;14.18;;
40164;SDS011;25882;51.120;17.248;2022-07-22T12:20:52;8.35;;;6.80;;
40164;SDS011;25882;51.120;17.248;2022-07-22T12:23:19;6.07;;;5.53;;
40164;SDS011;25882;51.120;17.248;2022-07-22T12:25:50;5.90;;;5.25;;
40164;SDS011;25882;51.120;17.248;2022-07-22T12:28:17;6.93;;;4.93;;
40164;SDS011;25882;51.120;17.248;2022-07-22T12:30:45;6.18;;;5.57;;
40164;SDS011;25882;51.120;17.248;2022-07-22T12:33:15;5.95;;;5.38;;
40164;SDS011;25882;51.120;17.248;2022-07-22T12:35:42;11.38;;;8.85;;
40164;SDS011;25882;51.120;17.248;2022-07-22T12:38:09;9.63;;;6.20;;
40164;SDS011;25882;51.120;17.248;2022-07-22T12:40:36;7.60;;;5.30;;
40164;SDS011;25882;51.120;17.248;2022-07-22T12:43:03;9.65;;;7.75;;
40164;SDS011;25882;51.120;17.248;2022-07-22T12:45:32;6.40;;;5.10;;
40164;SDS011;25882;51.120;17.248;2022-07-22T12:48:06;6.38;;;5.03;;
40164;SDS011;25882;51.120;17.248;2022-07-22T12:50:35;6.43;;;5.68;;
40164;SDS011;25882;51.120;17.248;2022-07-22T12:53:03;10.00;;;5.97;;
40164;SDS011;25882;51.120;17.248;2022-07-22T12:55:31;9.48;;;7.00;;
40164;SDS011;25882;51.120;17.248;2022-07-22T12:57:58;6.30;;;5.70;;
40164;SDS011;25882;51.120;17.248;2022-07-22T13:00:25;9.10;;;5.28;;
40164;SDS011;25882;51.120;17.248;2022-07-22T13:02:53;6.55;;;5.60;;
40164;SDS011;25882;51.120;17.248;2022-07-22T13:05:22;8.07;;;5.38;;
40164;SDS011;25882;51.120;17.248;2022-07-22T13:07:49;7.80;;;5.85;;
40164;SDS011;25882;51.120;17.248;2022-07-22T13:10:16;6.55;;;5.68;;
40164;SDS011;25882;51.120;17.248;2022-07-22T13:12:42;8.45;;;4.85;;
40164;SDS011;25882;51.120;17.248;2022-07-22T13:15:09;6.65;;;4.97;;
40164;SDS011;25882;51.120;17.248;2022-07-22T13:17:35;5.38;;;4.35;;
40164;SDS011;25882;51.120;17.248;2022-07-22T13:20:02;8.52;;;5.72;;
40164;SDS011;25882;51.120;17.248;2022-07-22T13:22:31;5.80;;;5.30;;
40164;SDS011;25882;51.120;17.248;2022-07-22T13:24:57;5.25;;;4.65;;
40164;SDS011;25882;51.120;17.248;2022-07-22T13:27:24;6.55;;;5.30;;
40164;SDS011;25882;51.120;17.248;2022-07-22T13:29:50;5.07;;;4.60;;
40164;SDS011;25882;51.120;17.248;2022-07-22T13:32:16;10.73;;;5.10;;
40164;SDS011;25882;51.120;17.248;2022-07-22T13:34:43;5.90;;;4.70;;
40164;SDS011;25882;51.120;17.248;2022-07-22T13:37:09;7.07;;;4.80;;
40164;SDS011;25882;51.120;17.248;2022-07-22T13:39:37;6.07;;;5.10;;
40164;SDS011;25882;51.120;17.248;2022-07-22T13:42:04;8.30;;;4.72;;
40164;SDS011;25882;51.120;17.248;2022-07-22T13:44:31;4.82;;;4.43;;
40164;SDS011;25882;51.120;17.248;2022-07-22T13:46:58;5.53;;;4.85;;
40164;SDS011;25882;51.120;17.248;2022-07-22T13:49:24;5.25;;;4.68;;
40164;SDS011;25882;51.120;17.248;2022-07-22T13:51:51;5.70;;;4.85;;
40164;SDS011;25882;51.120;17.248;2022-07-22T13:54:17;5.35;;;4.72;;
40164;SDS011;25882;51.120;17.248;2022-07-22T13:56:45;6.60;;;4.07;;
40164;SDS011;25882;51.120;17.248;2022-07-22T13:59:15;5.40;;;4.50;;
40164;SDS011;25882;51.120;17.248;2022-07-22T14:01:41;6.70;;;5.28;;
40164;SDS011;25882;51.120;17.248;2022-07-22T14:04:08;9.20;;;5.00;;
40164;SDS011;25882;51.120;17.248;2022-07-22T14:06:35;6.15;;;3.90;;
40164;SDS011;25882;51.120;17.248;2022-07-22T14:09:01;5.20;;;4.70;;
40164;SDS011;25882;51.120;17.248;2022-07-22T14:11:29;4.70;;;4.13;;
40164;SDS011;25882;51.120;17.248;2022-07-22T14:13:57;7.40;;;4.82;;
40164;SDS011;25882;51.120;17.248;2022-07-22T14:16:23;5.75;;;4.63;;
40164;SDS011;25882;51.120;17.248;2022-07-22T14:18:59;5.20;;;4.70;;
40164;SDS011;25882;51.120;17.248;2022-07-22T14:21:25;5.50;;;4.93;;
40164;SDS011;25882;51.120;17.248;2022-07-22T14:23:52;6.50;;;4.55;;
40164;SDS011;25882;51.120;17.248;2022-07-22T14:26:18;6.78;;;4.65;;
40164;SDS011;25882;51.120;17.248;2022-07-22T14:28:45;5.60;;;4.75;;
40164;SDS011;25882;51.120;17.248;2022-07-22T14:31:13;7.47;;;4.72;;
40164;SDS011;25882;51.120;17.248;2022-07-22T14:33:39;5.57;;;5.00;;
40164;SDS011;25882;51.120;17.248;2022-07-22T14:36:06;6.25;;;4.55;;
40164;SDS011;25882;51.120;17.248;2022-07-22T14:38:32;6.65;;;4.78;;
40164;SDS011;25882;51.120;17.248;2022-07-22T14:40:59;6.35;;;4.45;;
40164;SDS011;25882;51.120;17.248;2022-07-22T14:43:26;7.85;;;4.55;;
40164;SDS011;25882;51.120;17.248;2022-07-22T14:45:52;6.57;;;4.38;;